Etusivu
METAR-TAF:

METAR-TAF

Lentoasemat :

Beatrice Municipal Airport

Beatrice, Nebraska, Yhdysvallat

Leveyspiiri: 40-18N, Pituuspiiri: 096-45W, korkeus merenpinnasta: 403 m

Tämänhetkinen sää

Tämä raportti tehtiin 16 minuuttia sitten, kello 16.15 UTC
Tuuli 6 kn lännestä/luoteesta
Lämpötila 11°C
Kosteus 54%
Ilmanpaine 1007 hPa
Näkyvyys: 16.1 km
Pilvistä 7500 ft:n korkeudessa

METAR: KBIE 181615Z AUTO 30006KT 10SM OVC075 11/02 A2975 RMK AO2 T01050017

Aika: 10:31 (16:31 UTC)


TAF: puuttuu

Säähavainnot ja -ennusteet yli 4000 lentoasemalta (METAR- ja TAF-raportit).

Käytössä olevat sääasemat on merkitty karttaan keltaisilla ja punaisilla pisteillä.

Aseta hiiri pisteen päälle nähdäksesi sääaseman nimen.

Klikkaa sitten nähdäksesi säähavainnot ja -ennusteet.

Kartan vaihtaminen: klikkaa mustalla rastilla varustettuja vihreitä pisteitä, niin voit zoomata sisään; viivalla varustettua vihreää pistettä, niin voit zoomata ulos tai vihreitä nuolia, niin pääset viereisille kartoille.


METAR-TAF: